sensor_id;sensor_type;location;lat;lon;timestamp;P1;durP1;ratioP1;P2;durP2;ratioP2
27746;SDS011;15138;51.012;4.692;2024-02-28T00:01:33;12.45;;;6.90;;
27746;SDS011;15138;51.012;4.692;2024-02-28T00:04:02;17.00;;;8.35;;
27746;SDS011;15138;51.012;4.692;2024-02-28T00:06:30;12.52;;;7.15;;
27746;SDS011;15138;51.012;4.692;2024-02-28T00:08:58;10.90;;;7.13;;
27746;SDS011;15138;51.012;4.692;2024-02-28T00:11:28;10.82;;;6.03;;
27746;SDS011;15138;51.012;4.692;2024-02-28T00:13:57;13.52;;;6.70;;
27746;SDS011;15138;51.012;4.692;2024-02-28T00:16:26;12.32;;;6.82;;
27746;SDS011;15138;51.012;4.692;2024-02-28T00:18:54;11.75;;;6.57;;
27746;SDS011;15138;51.012;4.692;2024-02-28T00:21:23;12.80;;;7.43;;
27746;SDS011;15138;51.012;4.692;2024-02-28T00:23:51;13.65;;;8.05;;
27746;SDS011;15138;51.012;4.692;2024-02-28T00:26:20;16.33;;;9.60;;
27746;SDS011;15138;51.012;4.692;2024-02-28T00:28:50;12.27;;;8.15;;
27746;SDS011;15138;51.012;4.692;2024-02-28T00:31:18;16.30;;;7.90;;
27746;SDS011;15138;51.012;4.692;2024-02-28T00:33:47;11.65;;;6.03;;
27746;SDS011;15138;51.012;4.692;2024-02-28T00:36:16;9.25;;;5.57;;
27746;SDS011;15138;51.012;4.692;2024-02-28T00:38:44;8.40;;;5.88;;
27746;SDS011;15138;51.012;4.692;2024-02-28T00:41:13;12.32;;;7.00;;
27746;SDS011;15138;51.012;4.692;2024-02-28T00:43:41;13.68;;;7.28;;
27746;SDS011;15138;51.012;4.692;2024-02-28T00:46:11;11.57;;;5.80;;
27746;SDS011;15138;51.012;4.692;2024-02-28T00:48:39;11.93;;;6.15;;
27746;SDS011;15138;51.012;4.692;2024-02-28T00:51:08;10.32;;;5.80;;
27746;SDS011;15138;51.012;4.692;2024-02-28T00:53:36;10.52;;;5.88;;
27746;SDS011;15138;51.012;4.692;2024-02-28T00:56:06;14.43;;;6.57;;
27746;SDS011;15138;51.012;4.692;2024-02-28T00:58:34;12.23;;;6.43;;
27746;SDS011;15138;51.012;4.692;2024-02-28T01:01:03;14.32;;;7.68;;
27746;SDS011;15138;51.012;4.692;2024-02-28T01:03:33;12.30;;;6.85;;
27746;SDS011;15138;51.012;4.692;2024-02-28T01:06:01;12.18;;;7.07;;
27746;SDS011;15138;51.012;4.692;2024-02-28T01:08:30;11.45;;;6.30;;
27746;SDS011;15138;51.012;4.692;2024-02-28T01:10:59;16.05;;;8.82;;
27746;SDS011;15138;51.012;4.692;2024-02-28T01:13:27;15.35;;;8.10;;
27746;SDS011;15138;51.012;4.692;2024-02-28T01:15:56;15.95;;;8.23;;
27746;SDS011;15138;51.012;4.692;2024-02-28T01:18:26;10.68;;;6.50;;
27746;SDS011;15138;51.012;4.692;2024-02-28T01:20:58;10.95;;;6.53;;
27746;SDS011;15138;51.012;4.692;2024-02-28T01:23:27;12.02;;;5.90;;
27746;SDS011;15138;51.012;4.692;2024-02-28T01:25:55;12.43;;;6.93;;
27746;SDS011;15138;51.012;4.692;2024-02-28T01:28:23;10.68;;;6.30;;
27746;SDS011;15138;51.012;4.692;2024-02-28T01:30:52;9.20;;;5.55;;
27746;SDS011;15138;51.012;4.692;2024-02-28T01:33:20;12.38;;;6.85;;
27746;SDS011;15138;51.012;4.692;2024-02-28T01:35:49;10.48;;;6.43;;
27746;SDS011;15138;51.012;4.692;2024-02-28T01:38:19;11.40;;;6.75;;
27746;SDS011;15138;51.012;4.692;2024-02-28T01:40:47;16.80;;;8.63;;
27746;SDS011;15138;51.012;4.692;2024-02-28T01:43:16;10.85;;;6.72;;
27746;SDS011;15138;51.012;4.692;2024-02-28T01:45:45;13.82;;;8.23;;
27746;SDS011;15138;51.012;4.692;2024-02-28T01:48:13;14.63;;;7.28;;
27746;SDS011;15138;51.012;4.692;2024-02-28T01:50:42;12.25;;;7.22;;
27746;SDS011;15138;51.012;4.692;2024-02-28T01:53:10;17.58;;;8.60;;
27746;SDS011;15138;51.012;4.692;2024-02-28T01:55:41;10.18;;;6.10;;
27746;SDS011;15138;51.012;4.692;2024-02-28T01:58:10;12.35;;;6.40;;
27746;SDS011;15138;51.012;4.692;2024-02-28T02:00:39;15.27;;;7.85;;
27746;SDS011;15138;51.012;4.692;2024-02-28T02:03:08;9.05;;;5.70;;
27746;SDS011;15138;51.012;4.692;2024-02-28T02:05:36;16.42;;;7.63;;
27746;SDS011;15138;51.012;4.692;2024-02-28T02:08:05;17.88;;;9.35;;
27746;SDS011;15138;51.012;4.692;2024-02-28T02:10:34;16.40;;;9.48;;
27746;SDS011;15138;51.012;4.692;2024-02-28T02:13:13;17.20;;;8.93;;
27746;SDS011;15138;51.012;4.692;2024-02-28T02:15:41;18.23;;;9.48;;
27746;SDS011;15138;51.012;4.692;2024-02-28T02:18:09;14.40;;;8.27;;
27746;SDS011;15138;51.012;4.692;2024-02-28T02:20:38;17.05;;;8.32;;
27746;SDS011;15138;51.012;4.692;2024-02-28T02:23:10;14.57;;;8.75;;
27746;SDS011;15138;51.012;4.692;2024-02-28T02:25:43;13.77;;;6.90;;
27746;SDS011;15138;51.012;4.692;2024-02-28T02:28:12;16.77;;;9.23;;
27746;SDS011;15138;51.012;4.692;2024-02-28T02:30:41;19.35;;;9.18;;
27746;SDS011;15138;51.012;4.692;2024-02-28T02:33:09;14.13;;;8.40;;
27746;SDS011;15138;51.012;4.692;2024-02-28T02:35:38;17.20;;;10.02;;
27746;SDS011;15138;51.012;4.692;2024-02-28T02:38:06;15.35;;;9.15;;
27746;SDS011;15138;51.012;4.692;2024-02-28T02:40:36;15.70;;;8.82;;
27746;SDS011;15138;51.012;4.692;2024-02-28T02:43:04;11.25;;;7.03;;
27746;SDS011;15138;51.012;4.692;2024-02-28T02:45:33;11.70;;;6.85;;
27746;SDS011;15138;51.012;4.692;2024-02-28T02:48:01;12.00;;;7.15;;
27746;SDS011;15138;51.012;4.692;2024-02-28T02:50:30;13.70;;;7.20;;
27746;SDS011;15138;51.012;4.692;2024-02-28T02:52:58;14.45;;;8.65;;
27746;SDS011;15138;51.012;4.692;2024-02-28T02:55:27;18.25;;;10.73;;
27746;SDS011;15138;51.012;4.692;2024-02-28T02:57:57;16.80;;;9.32;;
27746;SDS011;15138;51.012;4.692;2024-02-28T03:00:25;18.10;;;10.15;;
27746;SDS011;15138;51.012;4.692;2024-02-28T03:02:54;19.90;;;9.82;;
27746;SDS011;15138;51.012;4.692;2024-02-28T03:05:22;14.32;;;8.05;;
27746;SDS011;15138;51.012;4.692;2024-02-28T03:07:51;18.02;;;10.15;;
27746;SDS011;15138;51.012;4.692;2024-02-28T03:10:20;14.63;;;8.63;;
27746;SDS011;15138;51.012;4.692;2024-02-28T03:12:48;16.50;;;9.35;;
27746;SDS011;15138;51.012;4.692;2024-02-28T03:15:18;21.58;;;10.80;;
27746;SDS011;15138;51.012;4.692;2024-02-28T03:17:46;22.83;;;10.35;;
27746;SDS011;15138;51.012;4.692;2024-02-28T03:20:15;15.93;;;8.50;;
27746;SDS011;15138;51.012;4.692;2024-02-28T03:22:43;15.45;;;8.55;;
27746;SDS011;15138;51.012;4.692;2024-02-28T03:25:12;14.88;;;8.65;;
27746;SDS011;15138;51.012;4.692;2024-02-28T03:27:40;15.32;;;8.65;;
27746;SDS011;15138;51.012;4.692;2024-02-28T03:30:09;23.13;;;10.25;;
27746;SDS011;15138;51.012;4.692;2024-02-28T03:32:39;18.92;;;9.20;;
27746;SDS011;15138;51.012;4.692;2024-02-28T03:35:07;22.25;;;11.88;;
27746;SDS011;15138;51.012;4.692;2024-02-28T03:37:36;19.65;;;9.43;;
27746;SDS011;15138;51.012;4.692;2024-02-28T03:40:05;27.52;;;12.95;;
27746;SDS011;15138;51.012;4.692;2024-02-28T03:42:34;20.95;;;10.13;;
27746;SDS011;15138;51.012;4.692;2024-02-28T03:45:02;22.80;;;11.40;;
27746;SDS011;15138;51.012;4.692;2024-02-28T03:47:31;19.85;;;9.38;;
27746;SDS011;15138;51.012;4.692;2024-02-28T03:50:01;24.45;;;12.40;;
27746;SDS011;15138;51.012;4.692;2024-02-28T03:52:30;24.92;;;12.50;;
27746;SDS011;15138;51.012;4.692;2024-02-28T03:54:58;18.30;;;10.15;;
27746;SDS011;15138;51.012;4.692;2024-02-28T03:57:27;26.15;;;12.73;;
27746;SDS011;15138;51.012;4.692;2024-02-28T03:59:55;27.13;;;13.23;;
27746;SDS011;15138;51.012;4.692;2024-02-28T04:02:23;31.75;;;12.80;;
27746;SDS011;15138;51.012;4.692;2024-02-28T04:04:52;31.65;;;14.32;;
27746;SDS011;15138;51.012;4.692;2024-02-28T04:07:22;15.35;;;8.13;;
27746;SDS011;15138;51.012;4.692;2024-02-28T04:09:50;28.77;;;14.50;;
27746;SDS011;15138;51.012;4.692;2024-02-28T04:12:19;24.73;;;13.35;;
27746;SDS011;15138;51.012;4.692;2024-02-28T04:14:47;27.55;;;14.73;;
27746;SDS011;15138;51.012;4.692;2024-02-28T04:17:16;29.13;;;14.43;;
27746;SDS011;15138;51.012;4.692;2024-02-28T04:19:44;26.00;;;12.75;;
27746;SDS011;15138;51.012;4.692;2024-02-28T04:22:12;23.20;;;12.75;;
27746;SDS011;15138;51.012;4.692;2024-02-28T04:24:42;27.83;;;13.50;;
27746;SDS011;15138;51.012;4.692;2024-02-28T04:27:11;17.70;;;9.02;;
27746;SDS011;15138;51.012;4.692;2024-02-28T04:29:39;25.67;;;13.02;;
27746;SDS011;15138;51.012;4.692;2024-02-28T04:32:07;32.35;;;15.10;;
27746;SDS011;15138;51.012;4.692;2024-02-28T04:34:36;26.55;;;13.98;;
27746;SDS011;15138;51.012;4.692;2024-02-28T04:37:04;27.33;;;13.18;;
27746;SDS011;15138;51.012;4.692;2024-02-28T04:39:33;21.13;;;11.70;;
27746;SDS011;15138;51.012;4.692;2024-02-28T04:42:03;21.10;;;10.50;;
27746;SDS011;15138;51.012;4.692;2024-02-28T04:44:31;20.42;;;10.75;;
27746;SDS011;15138;51.012;4.692;2024-02-28T04:46:59;26.48;;;12.85;;
27746;SDS011;15138;51.012;4.692;2024-02-28T04:49:29;20.95;;;10.20;;
27746;SDS011;15138;51.012;4.692;2024-02-28T04:51:57;20.02;;;8.93;;
27746;SDS011;15138;51.012;4.692;2024-02-28T04:54:26;21.63;;;11.90;;
27746;SDS011;15138;51.012;4.692;2024-02-28T04:56:54;16.90;;;8.35;;
27746;SDS011;15138;51.012;4.692;2024-02-28T04:59:24;21.58;;;11.10;;
27746;SDS011;15138;51.012;4.692;2024-02-28T05:01:52;18.83;;;10.10;;
27746;SDS011;15138;51.012;4.692;2024-02-28T05:04:21;17.50;;;9.48;;
27746;SDS011;15138;51.012;4.692;2024-02-28T05:06:49;16.27;;;9.25;;
27746;SDS011;15138;51.012;4.692;2024-02-28T05:09:18;25.23;;;12.25;;
27746;SDS011;15138;51.012;4.692;2024-02-28T05:11:46;24.85;;;11.93;;
27746;SDS011;15138;51.012;4.692;2024-02-28T05:14:15;21.60;;;11.32;;
27746;SDS011;15138;51.012;4.692;2024-02-28T05:16:46;17.77;;;8.90;;
27746;SDS011;15138;51.012;4.692;2024-02-28T05:19:14;29.85;;;14.13;;
27746;SDS011;15138;51.012;4.692;2024-02-28T05:21:45;23.85;;;12.05;;
27746;SDS011;15138;51.012;4.692;2024-02-28T05:24:14;26.48;;;14.00;;
27746;SDS011;15138;51.012;4.692;2024-02-28T05:26:43;29.75;;;14.05;;
27746;SDS011;15138;51.012;4.692;2024-02-28T05:29:11;20.17;;;10.68;;
27746;SDS011;15138;51.012;4.692;2024-02-28T05:31:40;25.63;;;14.07;;
27746;SDS011;15138;51.012;4.692;2024-02-28T05:34:09;27.63;;;12.85;;
27746;SDS011;15138;51.012;4.692;2024-02-28T05:36:40;29.15;;;13.45;;
27746;SDS011;15138;51.012;4.692;2024-02-28T05:39:09;26.13;;;13.38;;
27746;SDS011;15138;51.012;4.692;2024-02-28T05:41:37;22.05;;;11.55;;
27746;SDS011;15138;51.012;4.692;2024-02-28T05:44:05;31.05;;;13.88;;
27746;SDS011;15138;51.012;4.692;2024-02-28T05:46:34;29.33;;;14.20;;
27746;SDS011;15138;51.012;4.692;2024-02-28T05:49:04;22.02;;;11.40;;
27746;SDS011;15138;51.012;4.692;2024-02-28T05:51:33;25.40;;;12.40;;
27746;SDS011;15138;51.012;4.692;2024-02-28T05:54:02;28.38;;;13.38;;
27746;SDS011;15138;51.012;4.692;2024-02-28T05:56:31;32.50;;;14.18;;
27746;SDS011;15138;51.012;4.692;2024-02-28T05:58:59;33.83;;;12.98;;
27746;SDS011;15138;51.012;4.692;2024-02-28T06:01:28;26.35;;;13.38;;
27746;SDS011;15138;51.012;4.692;2024-02-28T06:03:56;24.02;;;12.48;;
27746;SDS011;15138;51.012;4.692;2024-02-28T06:06:25;28.52;;;14.70;;
27746;SDS011;15138;51.012;4.692;2024-02-28T06:08:54;19.50;;;9.77;;
27746;SDS011;15138;51.012;4.692;2024-02-28T06:11:23;19.27;;;9.88;;
27746;SDS011;15138;51.012;4.692;2024-02-28T06:13:52;23.17;;;11.40;;
27746;SDS011;15138;51.012;4.692;2024-02-28T06:16:20;23.13;;;11.50;;
27746;SDS011;15138;51.012;4.692;2024-02-28T06:18:49;24.98;;;11.85;;
27746;SDS011;15138;51.012;4.692;2024-02-28T06:21:17;30.63;;;14.32;;
27746;SDS011;15138;51.012;4.692;2024-02-28T06:23:45;17.17;;;7.90;;
27746;SDS011;15138;51.012;4.692;2024-02-28T06:26:15;17.67;;;8.82;;
27746;SDS011;15138;51.012;4.692;2024-02-28T06:28:44;21.63;;;10.40;;
27746;SDS011;15138;51.012;4.692;2024-02-28T06:31:14;23.88;;;11.10;;
27746;SDS011;15138;51.012;4.692;2024-02-28T06:33:42;21.95;;;10.68;;
27746;SDS011;15138;51.012;4.692;2024-02-28T06:36:11;15.88;;;8.77;;
27746;SDS011;15138;51.012;4.692;2024-02-28T06:38:39;23.85;;;12.27;;
27746;SDS011;15138;51.012;4.692;2024-02-28T06:41:08;27.73;;;13.93;;
27746;SDS011;15138;51.012;4.692;2024-02-28T06:43:38;20.25;;;9.75;;
27746;SDS011;15138;51.012;4.692;2024-02-28T06:46:06;15.75;;;7.97;;
27746;SDS011;15138;51.012;4.692;2024-02-28T06:48:36;20.38;;;9.70;;
27746;SDS011;15138;51.012;4.692;2024-02-28T06:51:04;16.75;;;9.10;;
27746;SDS011;15138;51.012;4.692;2024-02-28T06:53:33;19.58;;;10.23;;
27746;SDS011;15138;51.012;4.692;2024-02-28T06:56:01;23.95;;;12.70;;
27746;SDS011;15138;51.012;4.692;2024-02-28T06:58:30;30.70;;;12.75;;
27746;SDS011;15138;51.012;4.692;2024-02-28T07:01:00;25.65;;;12.27;;
27746;SDS011;15138;51.012;4.692;2024-02-28T07:03:29;26.65;;;12.90;;
27746;SDS011;15138;51.012;4.692;2024-02-28T07:05:58;25.27;;;12.88;;
27746;SDS011;15138;51.012;4.692;2024-02-28T07:08:26;24.70;;;12.05;;
27746;SDS011;15138;51.012;4.692;2024-02-28T07:10:54;20.98;;;10.85;;
27746;SDS011;15138;51.012;4.692;2024-02-28T07:13:23;25.30;;;12.20;;
27746;SDS011;15138;51.012;4.692;2024-02-28T07:15:53;26.88;;;13.23;;
27746;SDS011;15138;51.012;4.692;2024-02-28T07:18:25;29.05;;;13.35;;
27746;SDS011;15138;51.012;4.692;2024-02-28T07:20:55;29.92;;;14.23;;
27746;SDS011;15138;51.012;4.692;2024-02-28T07:23:23;39.17;;;16.98;;
27746;SDS011;15138;51.012;4.692;2024-02-28T07:25:52;29.85;;;15.80;;
27746;SDS011;15138;51.012;4.692;2024-02-28T07:28:20;31.75;;;15.75;;
27746;SDS011;15138;51.012;4.692;2024-02-28T07:30:49;32.40;;;14.82;;
27746;SDS011;15138;51.012;4.692;2024-02-28T07:33:17;28.85;;;13.50;;
27746;SDS011;15138;51.012;4.692;2024-02-28T07:35:47;28.70;;;13.38;;
27746;SDS011;15138;51.012;4.692;2024-02-28T07:38:16;30.55;;;13.05;;
27746;SDS011;15138;51.012;4.692;2024-02-28T07:40:47;32.88;;;15.57;;
27746;SDS011;15138;51.012;4.692;2024-02-28T07:43:16;38.25;;;16.23;;
27746;SDS011;15138;51.012;4.692;2024-02-28T07:45:44;44.00;;;16.65;;
27746;SDS011;15138;51.012;4.692;2024-02-28T07:48:12;39.35;;;17.90;;
27746;SDS011;15138;51.012;4.692;2024-02-28T07:50:44;37.58;;;18.42;;
27746;SDS011;15138;51.012;4.692;2024-02-28T07:53:13;47.50;;;19.15;;
27746;SDS011;15138;51.012;4.692;2024-02-28T07:55:42;40.33;;;16.17;;
27746;SDS011;15138;51.012;4.692;2024-02-28T07:58:11;44.40;;;18.33;;
27746;SDS011;15138;51.012;4.692;2024-02-28T08:00:39;40.65;;;18.20;;
27746;SDS011;15138;51.012;4.692;2024-02-28T08:03:09;42.95;;;18.92;;
27746;SDS011;15138;51.012;4.692;2024-02-28T08:05:38;38.58;;;15.77;;
27746;SDS011;15138;51.012;4.692;2024-02-28T08:08:07;41.85;;;18.90;;
27746;SDS011;15138;51.012;4.692;2024-02-28T08:10:37;45.20;;;19.95;;
27746;SDS011;15138;51.012;4.692;2024-02-28T08:13:05;46.92;;;20.05;;
27746;SDS011;15138;51.012;4.692;2024-02-28T08:15:34;41.28;;;17.92;;
27746;SDS011;15138;51.012;4.692;2024-02-28T08:18:03;47.15;;;20.55;;
27746;SDS011;15138;51.012;4.692;2024-02-28T08:20:31;57.42;;;21.50;;
27746;SDS011;15138;51.012;4.692;2024-02-28T08:23:00;47.97;;;21.30;;
27746;SDS011;15138;51.012;4.692;2024-02-28T08:25:29;45.75;;;19.80;;
27746;SDS011;15138;51.012;4.692;2024-02-28T08:27:59;53.92;;;22.15;;
27746;SDS011;15138;51.012;4.692;2024-02-28T08:30:28;46.33;;;17.58;;
27746;SDS011;15138;51.012;4.692;2024-02-28T08:32:57;46.58;;;20.30;;
27746;SDS011;15138;51.012;4.692;2024-02-28T08:35:26;53.38;;;19.35;;
27746;SDS011;15138;51.012;4.692;2024-02-28T08:37:54;48.90;;;21.88;;
27746;SDS011;15138;51.012;4.692;2024-02-28T08:40:23;44.35;;;19.48;;
27746;SDS011;15138;51.012;4.692;2024-02-28T08:42:51;43.03;;;18.83;;
27746;SDS011;15138;51.012;4.692;2024-02-28T08:45:22;43.33;;;17.58;;
27746;SDS011;15138;51.012;4.692;2024-02-28T08:47:51;57.13;;;20.25;;
27746;SDS011;15138;51.012;4.692;2024-02-28T08:50:19;48.00;;;18.55;;
27746;SDS011;15138;51.012;4.692;2024-02-28T08:52:48;54.58;;;19.45;;
27746;SDS011;15138;51.012;4.692;2024-02-28T08:55:16;63.70;;;24.38;;
27746;SDS011;15138;51.012;4.692;2024-02-28T08:57:46;47.60;;;19.98;;
27746;SDS011;15138;51.012;4.692;2024-02-28T09:00:15;45.67;;;20.83;;
27746;SDS011;15138;51.012;4.692;2024-02-28T09:02:45;51.85;;;19.83;;
27746;SDS011;15138;51.012;4.692;2024-02-28T09:05:13;52.28;;;21.08;;
27746;SDS011;15138;51.012;4.692;2024-02-28T09:07:42;55.58;;;21.73;;
27746;SDS011;15138;51.012;4.692;2024-02-28T09:10:10;59.08;;;21.08;;
27746;SDS011;15138;51.012;4.692;2024-02-28T09:12:38;56.45;;;21.33;;
27746;SDS011;15138;51.012;4.692;2024-02-28T09:15:07;47.58;;;18.05;;
27746;SDS011;15138;51.012;4.692;2024-02-28T09:17:35;53.35;;;18.40;;
27746;SDS011;15138;51.012;4.692;2024-02-28T09:20:06;48.15;;;17.20;;
27746;SDS011;15138;51.012;4.692;2024-02-28T09:22:35;47.10;;;19.90;;
27746;SDS011;15138;51.012;4.692;2024-02-28T09:25:04;45.28;;;17.55;;
27746;SDS011;15138;51.012;4.692;2024-02-28T09:27:32;52.40;;;20.63;;
27746;SDS011;15138;51.012;4.692;2024-02-28T09:30:01;57.38;;;20.45;;
27746;SDS011;15138;51.012;4.692;2024-02-28T09:32:29;43.92;;;18.27;;
27746;SDS011;15138;51.012;4.692;2024-02-28T09:34:58;47.30;;;19.15;;
27746;SDS011;15138;51.012;4.692;2024-02-28T09:37:29;52.67;;;18.77;;
27746;SDS011;15138;51.012;4.692;2024-02-28T09:39:58;43.17;;;15.95;;
27746;SDS011;15138;51.012;4.692;2024-02-28T09:42:27;44.13;;;19.20;;
27746;SDS011;15138;51.012;4.692;2024-02-28T09:44:56;42.15;;;16.45;;
27746;SDS011;15138;51.012;4.692;2024-02-28T09:47:27;48.95;;;18.48;;
27746;SDS011;15138;51.012;4.692;2024-02-28T09:49:57;42.05;;;16.00;;
27746;SDS011;15138;51.012;4.692;2024-02-28T09:52:26;42.88;;;16.90;;
27746;SDS011;15138;51.012;4.692;2024-02-28T09:54:56;52.88;;;19.42;;
27746;SDS011;15138;51.012;4.692;2024-02-28T09:57:25;37.90;;;15.27;;
27746;SDS011;15138;51.012;4.692;2024-02-28T09:59:56;46.83;;;17.70;;
27746;SDS011;15138;51.012;4.692;2024-02-28T10:02:26;47.60;;;16.55;;
27746;SDS011;15138;51.012;4.692;2024-02-28T10:04:56;46.58;;;17.33;;
27746;SDS011;15138;51.012;4.692;2024-02-28T10:07:25;39.95;;;15.00;;
27746;SDS011;15138;51.012;4.692;2024-02-28T10:09:53;49.10;;;18.67;;
27746;SDS011;15138;51.012;4.692;2024-02-28T10:12:23;42.88;;;16.25;;
27746;SDS011;15138;51.012;4.692;2024-02-28T10:14:52;46.47;;;17.42;;
27746;SDS011;15138;51.012;4.692;2024-02-28T10:17:21;34.28;;;15.80;;
27746;SDS011;15138;51.012;4.692;2024-02-28T10:19:52;46.03;;;15.65;;
27746;SDS011;15138;51.012;4.692;2024-02-28T10:22:20;45.15;;;17.00;;
27746;SDS011;15138;51.012;4.692;2024-02-28T10:24:48;41.15;;;15.25;;
27746;SDS011;15138;51.012;4.692;2024-02-28T10:27:17;41.15;;;16.23;;
27746;SDS011;15138;51.012;4.692;2024-02-28T10:29:48;47.95;;;18.45;;
27746;SDS011;15138;51.012;4.692;2024-02-28T10:32:17;45.72;;;20.17;;
27746;SDS011;15138;51.012;4.692;2024-02-28T10:34:45;39.88;;;14.73;;
27746;SDS011;15138;51.012;4.692;2024-02-28T10:37:14;52.10;;;18.42;;
27746;SDS011;15138;51.012;4.692;2024-02-28T10:39:43;42.58;;;17.20;;
27746;SDS011;15138;51.012;4.692;2024-02-28T10:42:13;39.22;;;16.17;;
27746;SDS011;15138;51.012;4.692;2024-02-28T10:44:43;42.60;;;17.55;;
27746;SDS011;15138;51.012;4.692;2024-02-28T10:47:13;45.00;;;17.00;;
27746;SDS011;15138;51.012;4.692;2024-02-28T10:49:42;39.05;;;14.73;;
27746;SDS011;15138;51.012;4.692;2024-02-28T10:52:11;43.38;;;15.85;;
27746;SDS011;15138;51.012;4.692;2024-02-28T10:54:40;38.03;;;13.07;;
27746;SDS011;15138;51.012;4.692;2024-02-28T10:57:10;44.63;;;16.75;;
27746;SDS011;15138;51.012;4.692;2024-02-28T10:59:40;41.55;;;15.82;;
27746;SDS011;15138;51.012;4.692;2024-02-28T11:02:13;38.63;;;14.70;;
27746;SDS011;15138;51.012;4.692;2024-02-28T11:04:42;34.42;;;14.13;;
27746;SDS011;15138;51.012;4.692;2024-02-28T11:07:11;34.00;;;14.38;;
27746;SDS011;15138;51.012;4.692;2024-02-28T11:09:40;38.13;;;14.48;;
27746;SDS011;15138;51.012;4.692;2024-02-28T11:12:13;32.58;;;13.10;;
27746;SDS011;15138;51.012;4.692;2024-02-28T11:14:55;38.45;;;14.93;;
27746;SDS011;15138;51.012;4.692;2024-02-28T11:17:27;31.77;;;12.05;;
27746;SDS011;15138;51.012;4.692;2024-02-28T11:19:56;35.25;;;12.52;;
27746;SDS011;15138;51.012;4.692;2024-02-28T11:22:27;26.60;;;10.48;;
27746;SDS011;15138;51.012;4.692;2024-02-28T11:24:56;22.30;;;9.77;;
27746;SDS011;15138;51.012;4.692;2024-02-28T11:27:24;27.40;;;12.30;;
27746;SDS011;15138;51.012;4.692;2024-02-28T11:29:53;29.17;;;10.65;;
27746;SDS011;15138;51.012;4.692;2024-02-28T11:32:21;34.10;;;13.85;;
27746;SDS011;15138;51.012;4.692;2024-02-28T11:34:54;26.23;;;12.20;;
27746;SDS011;15138;51.012;4.692;2024-02-28T11:37:22;28.15;;;10.90;;
27746;SDS011;15138;51.012;4.692;2024-02-28T11:39:51;29.65;;;10.15;;
27746;SDS011;15138;51.012;4.692;2024-02-28T11:42:19;30.33;;;11.13;;
27746;SDS011;15138;51.012;4.692;2024-02-28T11:44:52;23.27;;;10.23;;
27746;SDS011;15138;51.012;4.692;2024-02-28T11:47:26;28.75;;;10.02;;
27746;SDS011;15138;51.012;4.692;2024-02-28T11:49:59;25.27;;;9.27;;
27746;SDS011;15138;51.012;4.692;2024-02-28T11:52:28;23.52;;;10.25;;
27746;SDS011;15138;51.012;4.692;2024-02-28T11:54:56;19.30;;;9.02;;
27746;SDS011;15138;51.012;4.692;2024-02-28T11:57:25;24.02;;;9.98;;
27746;SDS011;15138;51.012;4.692;2024-02-28T11:59:55;26.05;;;11.18;;
27746;SDS011;15138;51.012;4.692;2024-02-28T12:02:23;22.88;;;9.73;;
27746;SDS011;15138;51.012;4.692;2024-02-28T12:04:53;21.17;;;8.38;;
27746;SDS011;15138;51.012;4.692;2024-02-28T12:07:23;23.77;;;10.38;;
27746;SDS011;15138;51.012;4.692;2024-02-28T12:09:53;25.48;;;9.32;;
27746;SDS011;15138;51.012;4.692;2024-02-28T12:12:22;21.38;;;8.52;;
27746;SDS011;15138;51.012;4.692;2024-02-28T12:14:51;25.55;;;10.02;;
27746;SDS011;15138;51.012;4.692;2024-02-28T12:17:19;22.52;;;9.93;;
27746;SDS011;15138;51.012;4.692;2024-02-28T12:19:48;32.63;;;10.98;;
27746;SDS011;15138;51.012;4.692;2024-02-28T12:22:22;21.88;;;10.15;;
27746;SDS011;15138;51.012;4.692;2024-02-28T12:24:51;27.60;;;11.50;;
27746;SDS011;15138;51.012;4.692;2024-02-28T12:27:20;29.25;;;11.05;;
27746;SDS011;15138;51.012;4.692;2024-02-28T12:29:48;26.13;;;9.95;;
27746;SDS011;15138;51.012;4.692;2024-02-28T12:32:16;31.50;;;12.02;;
27746;SDS011;15138;51.012;4.692;2024-02-28T12:34:45;24.02;;;11.07;;
27746;SDS011;15138;51.012;4.692;2024-02-28T12:37:13;31.15;;;11.43;;
27746;SDS011;15138;51.012;4.692;2024-02-28T12:39:43;29.70;;;12.18;;
27746;SDS011;15138;51.012;4.692;2024-02-28T12:42:14;25.70;;;12.23;;
27746;SDS011;15138;51.012;4.692;2024-02-28T12:44:42;26.60;;;11.98;;
27746;SDS011;15138;51.012;4.692;2024-02-28T12:47:12;24.98;;;10.93;;
27746;SDS011;15138;51.012;4.692;2024-02-28T12:49:40;23.40;;;10.98;;
27746;SDS011;15138;51.012;4.692;2024-02-28T12:52:09;23.55;;;10.52;;
27746;SDS011;15138;51.012;4.692;2024-02-28T12:54:38;20.40;;;10.48;;
27746;SDS011;15138;51.012;4.692;2024-02-28T12:57:08;26.17;;;10.88;;
27746;SDS011;15138;51.012;4.692;2024-02-28T12:59:39;20.38;;;8.45;;
27746;SDS011;15138;51.012;4.692;2024-02-28T13:02:07;24.10;;;11.15;;
27746;SDS011;15138;51.012;4.692;2024-02-28T13:04:37;26.00;;;12.18;;
27746;SDS011;15138;51.012;4.692;2024-02-28T13:07:06;23.77;;;11.00;;
27746;SDS011;15138;51.012;4.692;2024-02-28T13:09:34;24.48;;;11.25;;
27746;SDS011;15138;51.012;4.692;2024-02-28T13:12:04;28.30;;;11.75;;
27746;SDS011;15138;51.012;4.692;2024-02-28T13:14:34;22.15;;;10.60;;
27746;SDS011;15138;51.012;4.692;2024-02-28T13:17:03;25.92;;;10.82;;
27746;SDS011;15138;51.012;4.692;2024-02-28T13:19:32;21.40;;;9.05;;
27746;SDS011;15138;51.012;4.692;2024-02-28T13:22:00;18.55;;;9.23;;
27746;SDS011;15138;51.012;4.692;2024-02-28T13:24:28;23.17;;;9.95;;
27746;SDS011;15138;51.012;4.692;2024-02-28T13:26:57;26.25;;;10.10;;
27746;SDS011;15138;51.012;4.692;2024-02-28T13:29:25;20.23;;;9.15;;
27746;SDS011;15138;51.012;4.692;2024-02-28T13:31:55;18.65;;;8.80;;
27746;SDS011;15138;51.012;4.692;2024-02-28T13:34:24;22.33;;;9.25;;
27746;SDS011;15138;51.012;4.692;2024-02-28T13:36:52;14.38;;;7.32;;
27746;SDS011;15138;51.012;4.692;2024-02-28T13:39:21;18.65;;;7.50;;
27746;SDS011;15138;51.012;4.692;2024-02-28T13:41:50;14.07;;;7.03;;
27746;SDS011;15138;51.012;4.692;2024-02-28T13:44:19;14.10;;;6.97;;
27746;SDS011;15138;51.012;4.692;2024-02-28T13:46:47;15.45;;;6.50;;
27746;SDS011;15138;51.012;4.692;2024-02-28T13:49:18;15.35;;;6.25;;
27746;SDS011;15138;51.012;4.692;2024-02-28T13:51:47;12.27;;;5.65;;
27746;SDS011;15138;51.012;4.692;2024-02-28T13:54:16;17.45;;;6.40;;
27746;SDS011;15138;51.012;4.692;2024-02-28T13:56:44;11.15;;;5.50;;
27746;SDS011;15138;51.012;4.692;2024-02-28T13:59:13;12.55;;;5.68;;
27746;SDS011;15138;51.012;4.692;2024-02-28T14:01:41;12.27;;;5.45;;
27746;SDS011;15138;51.012;4.692;2024-02-28T14:04:10;13.18;;;4.93;;
27746;SDS011;15138;51.012;4.692;2024-02-28T14:06:40;11.40;;;4.90;;
27746;SDS011;15138;51.012;4.692;2024-02-28T14:09:08;11.40;;;5.35;;
27746;SDS011;15138;51.012;4.692;2024-02-28T14:11:36;10.80;;;4.90;;
27746;SDS011;15138;51.012;4.692;2024-02-28T14:14:05;14.82;;;5.15;;
27746;SDS011;15138;51.012;4.692;2024-02-28T14:16:34;30.75;;;9.88;;
27746;SDS011;15138;51.012;4.692;2024-02-28T14:19:02;10.55;;;5.15;;
27746;SDS011;15138;51.012;4.692;2024-02-28T14:21:30;13.68;;;4.93;;
27746;SDS011;15138;51.012;4.692;2024-02-28T14:24:01;12.55;;;5.20;;
27746;SDS011;15138;51.012;4.692;2024-02-28T14:26:29;11.82;;;4.32;;
27746;SDS011;15138;51.012;4.692;2024-02-28T14:28:58;10.30;;;4.95;;
27746;SDS011;15138;51.012;4.692;2024-02-28T14:31:26;8.57;;;4.40;;
27746;SDS011;15138;51.012;4.692;2024-02-28T14:33:55;8.40;;;3.95;;
27746;SDS011;15138;51.012;4.692;2024-02-28T14:36:24;7.40;;;3.80;;